sensor_id;sensor_type;location;lat;lon;timestamp;pressure;altitude;pressure_sealevel;temperature;humidity
35910;BME280;22004;49.120;-0.200;2022-12-08T00:01:08;101313.59;;;9.08;67.71
35910;BME280;22004;49.120;-0.200;2022-12-08T00:03:34;101313.59;;;9.08;67.67
35910;BME280;22004;49.120;-0.200;2022-12-08T00:06:01;101306.88;;;9.04;67.61
35910;BME280;22004;49.120;-0.200;2022-12-08T00:08:46;101306.59;;;8.89;68.34
35910;BME280;22004;49.120;-0.200;2022-12-08T00:11:30;101301.31;;;8.97;68.18
35910;BME280;22004;49.120;-0.200;2022-12-08T00:13:55;101305.50;;;8.56;69.29
35910;BME280;22004;49.120;-0.200;2022-12-08T00:16:20;101299.19;;;9.01;67.56
35910;BME280;22004;49.120;-0.200;2022-12-08T00:18:46;101295.22;;;8.34;68.62
35910;BME280;22004;49.120;-0.200;2022-12-08T00:21:11;101297.78;;;8.71;67.76
35910;BME280;22004;49.120;-0.200;2022-12-08T00:23:36;101300.34;;;8.27;69.95
35910;BME280;22004;49.120;-0.200;2022-12-08T00:26:03;101298.09;;;8.94;67.96
35910;BME280;22004;49.120;-0.200;2022-12-08T00:28:29;101292.66;;;9.03;67.88
35910;BME280;22004;49.120;-0.200;2022-12-08T00:30:55;101288.22;;;8.94;68.01
35910;BME280;22004;49.120;-0.200;2022-12-08T00:33:20;101285.81;;;9.09;67.38
35910;BME280;22004;49.120;-0.200;2022-12-08T00:35:46;101277.03;;;8.99;67.65
35910;BME280;22004;49.120;-0.200;2022-12-08T00:38:11;101274.91;;;9.02;67.46
35910;BME280;22004;49.120;-0.200;2022-12-08T00:40:36;101265.50;;;8.98;67.58
35910;BME280;22004;49.120;-0.200;2022-12-08T00:43:02;101266.19;;;9.00;67.50
35910;BME280;22004;49.120;-0.200;2022-12-08T00:45:27;101262.16;;;8.96;67.70
35910;BME280;22004;49.120;-0.200;2022-12-08T00:47:52;101256.31;;;9.01;67.69
35910;BME280;22004;49.120;-0.200;2022-12-08T00:50:18;101253.28;;;8.96;67.46
35910;BME280;22004;49.120;-0.200;2022-12-08T00:52:43;101249.78;;;9.03;67.33
35910;BME280;22004;49.120;-0.200;2022-12-08T00:55:08;101245.38;;;8.94;67.50
35910;BME280;22004;49.120;-0.200;2022-12-08T00:57:34;101239.19;;;8.94;67.29
35910;BME280;22004;49.120;-0.200;2022-12-08T00:59:59;101242.22;;;8.99;67.18
35910;BME280;22004;49.120;-0.200;2022-12-08T01:02:25;101236.03;;;8.98;67.76
35910;BME280;22004;49.120;-0.200;2022-12-08T01:04:51;101236.81;;;9.17;67.25
35910;BME280;22004;49.120;-0.200;2022-12-08T01:07:16;101233.94;;;8.58;66.71
35910;BME280;22004;49.120;-0.200;2022-12-08T01:09:42;101234.94;;;9.09;67.16
35910;BME280;22004;49.120;-0.200;2022-12-08T01:12:07;101236.63;;;9.10;66.93
35910;BME280;22004;49.120;-0.200;2022-12-08T01:14:33;101241.13;;;9.10;66.78
35910;BME280;22004;49.120;-0.200;2022-12-08T01:16:58;101234.78;;;9.11;66.83
35910;BME280;22004;49.120;-0.200;2022-12-08T01:19:23;101238.88;;;8.97;67.02
35910;BME280;22004;49.120;-0.200;2022-12-08T01:21:49;101230.00;;;8.96;67.22
35910;BME280;22004;49.120;-0.200;2022-12-08T01:24:17;101240.50;;;8.90;67.37
35910;BME280;22004;49.120;-0.200;2022-12-08T01:26:43;101229.41;;;8.85;67.15
35910;BME280;22004;49.120;-0.200;2022-12-08T01:29:09;101229.47;;;8.93;67.10
35910;BME280;22004;49.120;-0.200;2022-12-08T01:31:35;101223.22;;;8.84;66.90
35910;BME280;22004;49.120;-0.200;2022-12-08T01:34:00;101225.59;;;8.87;67.15
35910;BME280;22004;49.120;-0.200;2022-12-08T01:36:28;101222.63;;;8.90;67.28
35910;BME280;22004;49.120;-0.200;2022-12-08T01:38:56;101223.75;;;8.88;66.97
35910;BME280;22004;49.120;-0.200;2022-12-08T01:41:24;101218.56;;;8.86;67.31
35910;BME280;22004;49.120;-0.200;2022-12-08T01:46:35;101224.75;;;8.87;67.09
35910;BME280;22004;49.120;-0.200;2022-12-08T01:49:04;101222.09;;;8.87;66.95
35910;BME280;22004;49.120;-0.200;2022-12-08T01:51:34;101218.72;;;8.85;67.46
35910;BME280;22004;49.120;-0.200;2022-12-08T01:54:04;101225.03;;;8.75;67.56
35910;BME280;22004;49.120;-0.200;2022-12-08T01:56:56;101219.34;;;8.52;67.28
35910;BME280;22004;49.120;-0.200;2022-12-08T01:59:23;101217.19;;;8.82;67.27
35910;BME280;22004;49.120;-0.200;2022-12-08T02:01:50;101216.25;;;8.65;67.58
35910;BME280;22004;49.120;-0.200;2022-12-08T02:04:16;101221.03;;;8.79;67.38
35910;BME280;22004;49.120;-0.200;2022-12-08T02:06:44;101211.53;;;8.23;68.78
35910;BME280;22004;49.120;-0.200;2022-12-08T02:09:11;101221.13;;;8.70;68.00
35910;BME280;22004;49.120;-0.200;2022-12-08T02:11:36;101222.34;;;8.75;67.53
35910;BME280;22004;49.120;-0.200;2022-12-08T02:14:03;101219.50;;;8.77;67.47
35910;BME280;22004;49.120;-0.200;2022-12-08T02:16:56;101215.75;;;8.70;67.74
35910;BME280;22004;49.120;-0.200;2022-12-08T02:23:16;101215.09;;;8.68;67.71
35910;BME280;22004;49.120;-0.200;2022-12-08T02:36:23;101207.34;;;8.83;67.39
35910;BME280;22004;49.120;-0.200;2022-12-08T02:41:48;101208.28;;;8.73;67.59
35910;BME280;22004;49.120;-0.200;2022-12-08T02:44:26;101199.88;;;8.68;67.74
35910;BME280;22004;49.120;-0.200;2022-12-08T02:47:03;101198.72;;;8.71;67.84
35910;BME280;22004;49.120;-0.200;2022-12-08T02:49:34;101190.53;;;8.72;67.64
35910;BME280;22004;49.120;-0.200;2022-12-08T02:54:46;101177.41;;;8.61;67.99
35910;BME280;22004;49.120;-0.200;2022-12-08T03:02:41;101167.03;;;8.58;68.23
35910;BME280;22004;49.120;-0.200;2022-12-08T03:07:49;101153.06;;;8.46;68.48
35910;BME280;22004;49.120;-0.200;2022-12-08T03:10:31;101142.03;;;8.49;68.41
35910;BME280;22004;49.120;-0.200;2022-12-08T03:13:14;101131.50;;;8.48;67.86
35910;BME280;22004;49.120;-0.200;2022-12-08T03:15:44;101126.88;;;8.58;67.99
35910;BME280;22004;49.120;-0.200;2022-12-08T03:18:14;101133.06;;;8.15;67.59
35910;BME280;22004;49.120;-0.200;2022-12-08T03:20:41;101133.53;;;8.54;68.35
35910;BME280;22004;49.120;-0.200;2022-12-08T03:23:10;101136.31;;;8.44;68.29
35910;BME280;22004;49.120;-0.200;2022-12-08T03:25:40;101139.00;;;8.44;67.79
35910;BME280;22004;49.120;-0.200;2022-12-08T03:28:08;101136.56;;;8.59;67.96
35910;BME280;22004;49.120;-0.200;2022-12-08T03:30:38;101122.53;;;7.95;69.49
35910;BME280;22004;49.120;-0.200;2022-12-08T03:33:19;101125.50;;;8.54;68.23
35910;BME280;22004;49.120;-0.200;2022-12-08T03:35:47;101119.38;;;8.62;67.69
35910;BME280;22004;49.120;-0.200;2022-12-08T03:38:15;101123.53;;;8.56;67.51
35910;BME280;22004;49.120;-0.200;2022-12-08T03:40:42;101119.16;;;8.55;67.83
35910;BME280;22004;49.120;-0.200;2022-12-08T03:43:07;101119.78;;;8.49;67.98
35910;BME280;22004;49.120;-0.200;2022-12-08T03:45:33;101115.06;;;8.43;68.21
35910;BME280;22004;49.120;-0.200;2022-12-08T03:47:58;101111.94;;;8.47;67.96
35910;BME280;22004;49.120;-0.200;2022-12-08T03:50:24;101117.00;;;8.59;68.05
35910;BME280;22004;49.120;-0.200;2022-12-08T03:52:50;101119.81;;;8.31;68.24
35910;BME280;22004;49.120;-0.200;2022-12-08T03:55:15;101118.38;;;8.37;68.25
35910;BME280;22004;49.120;-0.200;2022-12-08T03:57:41;101124.38;;;8.57;67.85
35910;BME280;22004;49.120;-0.200;2022-12-08T04:00:10;101105.78;;;8.55;67.67
35910;BME280;22004;49.120;-0.200;2022-12-08T04:02:37;101108.84;;;8.16;69.33
35910;BME280;22004;49.120;-0.200;2022-12-08T04:05:03;101102.72;;;8.50;68.15
35910;BME280;22004;49.120;-0.200;2022-12-08T04:07:28;101099.75;;;8.53;67.78
35910;BME280;22004;49.120;-0.200;2022-12-08T04:09:54;101094.66;;;8.68;67.39
35910;BME280;22004;49.120;-0.200;2022-12-08T04:12:19;101094.13;;;8.38;67.16
35910;BME280;22004;49.120;-0.200;2022-12-08T04:14:44;101092.00;;;7.98;69.31
35910;BME280;22004;49.120;-0.200;2022-12-08T04:17:10;101088.88;;;8.54;67.62
35910;BME280;22004;49.120;-0.200;2022-12-08T04:19:35;101079.22;;;8.62;67.15
35910;BME280;22004;49.120;-0.200;2022-12-08T04:22:00;101079.22;;;8.62;67.11
35910;BME280;22004;49.120;-0.200;2022-12-08T04:24:26;101083.22;;;8.58;67.66
35910;BME280;22004;49.120;-0.200;2022-12-08T04:26:51;101083.50;;;8.28;66.63
35910;BME280;22004;49.120;-0.200;2022-12-08T04:29:16;101085.72;;;8.59;67.48
35910;BME280;22004;49.120;-0.200;2022-12-08T04:31:42;101081.22;;;8.60;67.60
35910;BME280;22004;49.120;-0.200;2022-12-08T04:34:08;101077.28;;;8.72;67.02
35910;BME280;22004;49.120;-0.200;2022-12-08T04:36:33;101073.59;;;8.73;66.62
35910;BME280;22004;49.120;-0.200;2022-12-08T04:38:58;101072.28;;;8.77;66.97
35910;BME280;22004;49.120;-0.200;2022-12-08T04:41:24;101066.56;;;8.80;66.85
35910;BME280;22004;49.120;-0.200;2022-12-08T04:43:49;101061.75;;;8.84;66.64
35910;BME280;22004;49.120;-0.200;2022-12-08T04:46:14;101062.22;;;8.79;66.69
35910;BME280;22004;49.120;-0.200;2022-12-08T04:48:40;101063.59;;;8.83;66.80
35910;BME280;22004;49.120;-0.200;2022-12-08T04:51:06;101057.41;;;8.83;66.81
35910;BME280;22004;49.120;-0.200;2022-12-08T04:53:32;101060.03;;;8.74;67.12
35910;BME280;22004;49.120;-0.200;2022-12-08T04:55:57;101060.91;;;8.83;66.60
35910;BME280;22004;49.120;-0.200;2022-12-08T04:58:23;101052.22;;;8.81;66.55
35910;BME280;22004;49.120;-0.200;2022-12-08T05:00:48;101061.63;;;8.51;67.33
35910;BME280;22004;49.120;-0.200;2022-12-08T05:03:14;101058.41;;;8.82;66.75
35910;BME280;22004;49.120;-0.200;2022-12-08T05:05:41;101058.88;;;8.77;66.59
35910;BME280;22004;49.120;-0.200;2022-12-08T05:08:07;101055.06;;;8.88;66.39
35910;BME280;22004;49.120;-0.200;2022-12-08T05:10:33;101055.75;;;8.90;66.64
35910;BME280;22004;49.120;-0.200;2022-12-08T05:12:59;101055.34;;;8.68;66.88
35910;BME280;22004;49.120;-0.200;2022-12-08T05:15:24;101054.72;;;8.83;66.45
35910;BME280;22004;49.120;-0.200;2022-12-08T05:17:50;101048.88;;;8.87;66.62
35910;BME280;22004;49.120;-0.200;2022-12-08T05:20:15;101051.03;;;8.84;66.52
35910;BME280;22004;49.120;-0.200;2022-12-08T05:22:41;101046.22;;;8.87;66.35
35910;BME280;22004;49.120;-0.200;2022-12-08T05:25:07;101050.06;;;8.93;66.32
35910;BME280;22004;49.120;-0.200;2022-12-08T05:27:32;101044.19;;;8.81;65.60
35910;BME280;22004;49.120;-0.200;2022-12-08T05:29:58;101045.19;;;8.88;66.43
35910;BME280;22004;49.120;-0.200;2022-12-08T05:32:23;101039.06;;;8.96;66.32
35910;BME280;22004;49.120;-0.200;2022-12-08T05:34:48;101039.53;;;8.91;66.44
35910;BME280;22004;49.120;-0.200;2022-12-08T05:37:14;101040.53;;;8.90;66.46
35910;BME280;22004;49.120;-0.200;2022-12-08T05:39:39;101039.00;;;8.88;66.36
35910;BME280;22004;49.120;-0.200;2022-12-08T05:42:04;101040.38;;;8.92;66.49
35910;BME280;22004;49.120;-0.200;2022-12-08T05:44:30;101030.50;;;8.24;66.86
35910;BME280;22004;49.120;-0.200;2022-12-08T05:46:56;101032.47;;;8.82;66.69
35910;BME280;22004;49.120;-0.200;2022-12-08T05:49:21;101028.47;;;8.86;66.42
35910;BME280;22004;49.120;-0.200;2022-12-08T05:51:46;101026.47;;;8.88;66.19
35910;BME280;22004;49.120;-0.200;2022-12-08T05:54:12;101012.91;;;8.90;66.45
35910;BME280;22004;49.120;-0.200;2022-12-08T05:56:38;101017.25;;;8.83;66.57
35910;BME280;22004;49.120;-0.200;2022-12-08T05:59:07;101011.72;;;8.84;66.52
35910;BME280;22004;49.120;-0.200;2022-12-08T06:01:32;101002.72;;;8.85;66.54
35910;BME280;22004;49.120;-0.200;2022-12-08T06:03:59;101015.09;;;8.86;66.43
35910;BME280;22004;49.120;-0.200;2022-12-08T06:06:26;101008.56;;;8.80;66.70
35910;BME280;22004;49.120;-0.200;2022-12-08T06:08:51;101014.03;;;8.79;66.84
35910;BME280;22004;49.120;-0.200;2022-12-08T06:11:26;101003.09;;;8.56;66.48
35910;BME280;22004;49.120;-0.200;2022-12-08T06:13:52;101007.53;;;8.82;66.67
35910;BME280;22004;49.120;-0.200;2022-12-08T06:16:18;101008.34;;;8.74;66.93
35910;BME280;22004;49.120;-0.200;2022-12-08T06:18:43;101009.22;;;8.83;66.43
35910;BME280;22004;49.120;-0.200;2022-12-08T06:21:12;101011.00;;;8.74;66.90
35910;BME280;22004;49.120;-0.200;2022-12-08T06:23:37;101012.19;;;8.71;66.85
35910;BME280;22004;49.120;-0.200;2022-12-08T06:26:08;101010.72;;;8.77;66.82
35910;BME280;22004;49.120;-0.200;2022-12-08T06:28:35;101001.13;;;8.66;66.97
35910;BME280;22004;49.120;-0.200;2022-12-08T06:31:06;101001.81;;;8.68;67.26
35910;BME280;22004;49.120;-0.200;2022-12-08T06:33:32;101007.84;;;8.70;66.89
35910;BME280;22004;49.120;-0.200;2022-12-08T06:35:57;100999.28;;;8.67;66.91
35910;BME280;22004;49.120;-0.200;2022-12-08T06:38:23;101002.97;;;8.66;67.29
35910;BME280;22004;49.120;-0.200;2022-12-08T06:40:53;100996.78;;;8.73;66.98
35910;BME280;22004;49.120;-0.200;2022-12-08T06:43:18;100998.28;;;8.68;67.17
35910;BME280;22004;49.120;-0.200;2022-12-08T06:45:44;100991.44;;;8.65;67.32
35910;BME280;22004;49.120;-0.200;2022-12-08T06:48:09;100994.47;;;8.70;67.16
35910;BME280;22004;49.120;-0.200;2022-12-08T06:50:34;100993.41;;;8.63;66.86
35910;BME280;22004;49.120;-0.200;2022-12-08T06:53:00;100985.91;;;8.67;67.20
35910;BME280;22004;49.120;-0.200;2022-12-08T06:55:25;100990.06;;;8.61;67.25
35910;BME280;22004;49.120;-0.200;2022-12-08T06:57:52;100983.22;;;8.67;67.21
35910;BME280;22004;49.120;-0.200;2022-12-08T07:00:17;100979.38;;;8.61;67.27
35910;BME280;22004;49.120;-0.200;2022-12-08T07:02:43;100970.69;;;8.67;67.31
35910;BME280;22004;49.120;-0.200;2022-12-08T07:05:08;100973.69;;;8.64;67.28
35910;BME280;22004;49.120;-0.200;2022-12-08T07:07:33;100980.03;;;8.63;67.34
35910;BME280;22004;49.120;-0.200;2022-12-08T07:09:59;100979.72;;;8.66;67.40
35910;BME280;22004;49.120;-0.200;2022-12-08T07:12:24;100983.72;;;8.62;67.54
35910;BME280;22004;49.120;-0.200;2022-12-08T07:14:49;100983.53;;;8.64;67.26
35910;BME280;22004;49.120;-0.200;2022-12-08T07:17:15;100988.72;;;8.57;67.48
35910;BME280;22004;49.120;-0.200;2022-12-08T07:19:40;100979.97;;;8.47;68.03
35910;BME280;22004;49.120;-0.200;2022-12-08T07:22:05;100979.50;;;8.60;67.55
35910;BME280;22004;49.120;-0.200;2022-12-08T07:24:31;100977.97;;;8.49;67.55
35910;BME280;22004;49.120;-0.200;2022-12-08T07:26:56;100977.44;;;7.85;68.86
35910;BME280;22004;49.120;-0.200;2022-12-08T07:29:21;100982.66;;;8.55;67.96
35910;BME280;22004;49.120;-0.200;2022-12-08T07:31:47;100982.72;;;8.63;67.55
35910;BME280;22004;49.120;-0.200;2022-12-08T07:34:12;100982.34;;;8.58;67.69
35910;BME280;22004;49.120;-0.200;2022-12-08T07:36:38;100991.91;;;8.61;67.54
35910;BME280;22004;49.120;-0.200;2022-12-08T07:39:04;100983.69;;;8.54;67.66
35910;BME280;22004;49.120;-0.200;2022-12-08T07:41:29;100983.88;;;8.61;67.62
35910;BME280;22004;49.120;-0.200;2022-12-08T07:43:55;100985.84;;;8.50;67.53
35910;BME280;22004;49.120;-0.200;2022-12-08T07:46:22;100983.00;;;8.52;67.46
35910;BME280;22004;49.120;-0.200;2022-12-08T07:48:47;100986.34;;;8.54;67.71
35910;BME280;22004;49.120;-0.200;2022-12-08T07:51:14;100985.34;;;8.55;67.79
35910;BME280;22004;49.120;-0.200;2022-12-08T07:53:41;100979.16;;;8.54;67.41
35910;BME280;22004;49.120;-0.200;2022-12-08T07:56:08;100962.25;;;8.20;67.71
35910;BME280;22004;49.120;-0.200;2022-12-08T07:58:34;100981.84;;;8.54;67.86
35910;BME280;22004;49.120;-0.200;2022-12-08T08:00:59;100976.66;;;8.53;67.67
35910;BME280;22004;49.120;-0.200;2022-12-08T08:03:24;100974.34;;;8.58;67.67
35910;BME280;22004;49.120;-0.200;2022-12-08T08:05:50;100970.94;;;8.48;67.91
35910;BME280;22004;49.120;-0.200;2022-12-08T08:08:16;100963.63;;;8.58;67.59
35910;BME280;22004;49.120;-0.200;2022-12-08T08:10:42;100967.44;;;8.47;67.86
35910;BME280;22004;49.120;-0.200;2022-12-08T08:13:08;100953.06;;;8.48;67.64
35910;BME280;22004;49.120;-0.200;2022-12-08T08:15:34;100953.88;;;8.49;67.98
35910;BME280;22004;49.120;-0.200;2022-12-08T08:17:59;100952.41;;;8.46;68.11
35910;BME280;22004;49.120;-0.200;2022-12-08T08:20:25;100947.53;;;8.50;67.94
35910;BME280;22004;49.120;-0.200;2022-12-08T08:22:50;100951.06;;;8.50;68.05
35910;BME280;22004;49.120;-0.200;2022-12-08T08:25:17;100949.91;;;8.53;67.58
35910;BME280;22004;49.120;-0.200;2022-12-08T08:27:43;100952.25;;;8.56;67.60
35910;BME280;22004;49.120;-0.200;2022-12-08T08:30:10;100951.25;;;8.57;67.40
35910;BME280;22004;49.120;-0.200;2022-12-08T08:32:36;100947.03;;;8.54;67.83
35910;BME280;22004;49.120;-0.200;2022-12-08T08:35:02;100953.97;;;7.71;69.96
35910;BME280;22004;49.120;-0.200;2022-12-08T08:37:28;100948.44;;;8.33;68.35
35910;BME280;22004;49.120;-0.200;2022-12-08T08:39:53;100948.22;;;8.60;67.76
35910;BME280;22004;49.120;-0.200;2022-12-08T08:42:19;100935.56;;;8.70;67.30
35910;BME280;22004;49.120;-0.200;2022-12-08T08:44:45;100936.34;;;8.20;68.54
35910;BME280;22004;49.120;-0.200;2022-12-08T08:47:10;100938.91;;;8.72;67.19
35910;BME280;22004;49.120;-0.200;2022-12-08T08:49:36;100935.94;;;8.75;67.14
35910;BME280;22004;49.120;-0.200;2022-12-08T08:52:02;100932.91;;;8.78;67.07
35910;BME280;22004;49.120;-0.200;2022-12-08T08:54:28;100928.72;;;8.84;66.79
35910;BME280;22004;49.120;-0.200;2022-12-08T08:56:54;100920.03;;;8.82;66.85
35910;BME280;22004;49.120;-0.200;2022-12-08T08:59:19;100921.03;;;8.89;67.01
35910;BME280;22004;49.120;-0.200;2022-12-08T09:01:45;100916.00;;;8.94;66.74
35910;BME280;22004;49.120;-0.200;2022-12-08T09:04:10;100924.06;;;8.94;66.62
35910;BME280;22004;49.120;-0.200;2022-12-08T09:06:35;100924.38;;;8.99;66.62
35910;BME280;22004;49.120;-0.200;2022-12-08T09:09:01;100922.41;;;9.01;66.86
35910;BME280;22004;49.120;-0.200;2022-12-08T09:11:26;100918.72;;;9.02;66.49
35910;BME280;22004;49.120;-0.200;2022-12-08T09:13:52;100926.94;;;9.01;66.56
35910;BME280;22004;49.120;-0.200;2022-12-08T09:16:18;100928.28;;;9.05;66.47
35910;BME280;22004;49.120;-0.200;2022-12-08T09:18:44;100919.38;;;9.04;66.33
35910;BME280;22004;49.120;-0.200;2022-12-08T09:21:12;100920.72;;;9.09;66.62
35910;BME280;22004;49.120;-0.200;2022-12-08T09:23:39;100921.22;;;9.04;66.48
35910;BME280;22004;49.120;-0.200;2022-12-08T09:26:05;100923.41;;;9.09;66.37
35910;BME280;22004;49.120;-0.200;2022-12-08T09:28:31;100922.72;;;9.15;66.16
35910;BME280;22004;49.120;-0.200;2022-12-08T09:30:56;100921.06;;;9.05;66.44
35910;BME280;22004;49.120;-0.200;2022-12-08T09:33:22;100920.06;;;9.06;66.43
35910;BME280;22004;49.120;-0.200;2022-12-08T09:35:47;100921.22;;;9.12;66.42
35910;BME280;22004;49.120;-0.200;2022-12-08T09:38:13;100918.56;;;9.12;66.36
35910;BME280;22004;49.120;-0.200;2022-12-08T09:40:50;100918.88;;;8.93;66.96
35910;BME280;22004;49.120;-0.200;2022-12-08T09:43:41;100915.38;;;9.17;66.42
35910;BME280;22004;49.120;-0.200;2022-12-08T09:46:06;100920.56;;;9.10;66.58
35910;BME280;22004;49.120;-0.200;2022-12-08T09:48:39;100925.25;;;8.92;66.98
35910;BME280;22004;49.120;-0.200;2022-12-08T09:51:07;100930.94;;;9.13;66.71
35910;BME280;22004;49.120;-0.200;2022-12-08T09:53:44;100923.75;;;9.14;66.27
35910;BME280;22004;49.120;-0.200;2022-12-08T09:56:16;100926.44;;;9.22;66.31
35910;BME280;22004;49.120;-0.200;2022-12-08T09:58:50;100922.75;;;9.23;66.09
35910;BME280;22004;49.120;-0.200;2022-12-08T10:01:20;100922.91;;;9.29;66.19
35910;BME280;22004;49.120;-0.200;2022-12-08T10:03:46;100916.22;;;9.17;65.84
35910;BME280;22004;49.120;-0.200;2022-12-08T10:06:23;100914.88;;;9.21;66.04
35910;BME280;22004;49.120;-0.200;2022-12-08T10:09:31;100918.56;;;9.20;66.32
35910;BME280;22004;49.120;-0.200;2022-12-08T10:12:20;100918.06;;;9.17;66.28
35910;BME280;22004;49.120;-0.200;2022-12-08T10:17:55;100899.66;;;9.30;66.05
35910;BME280;22004;49.120;-0.200;2022-12-08T10:20:24;100904.69;;;9.25;66.39
35910;BME280;22004;49.120;-0.200;2022-12-08T10:22:57;100897.13;;;9.37;66.01
35910;BME280;22004;49.120;-0.200;2022-12-08T10:25:38;100894.59;;;9.43;65.84
35910;BME280;22004;49.120;-0.200;2022-12-08T10:28:06;100890.56;;;9.47;65.78
35910;BME280;22004;49.120;-0.200;2022-12-08T10:30:32;100891.03;;;9.59;65.33
35910;BME280;22004;49.120;-0.200;2022-12-08T10:32:58;100886.88;;;9.48;65.54
35910;BME280;22004;49.120;-0.200;2022-12-08T10:35:24;100881.84;;;9.53;65.55
35910;BME280;22004;49.120;-0.200;2022-12-08T10:38:19;100886.25;;;9.14;66.08
35910;BME280;22004;49.120;-0.200;2022-12-08T10:40:45;100870.50;;;9.19;66.29
35910;BME280;22004;49.120;-0.200;2022-12-08T10:43:14;100865.66;;;8.98;66.59
35910;BME280;22004;49.120;-0.200;2022-12-08T10:45:41;100859.59;;;9.28;65.88
35910;BME280;22004;49.120;-0.200;2022-12-08T10:50:43;100854.94;;;8.90;67.56
35910;BME280;22004;49.120;-0.200;2022-12-08T10:53:13;100846.41;;;9.27;66.49
35910;BME280;22004;49.120;-0.200;2022-12-08T10:58:25;100848.59;;;9.15;67.26
35910;BME280;22004;49.120;-0.200;2022-12-08T11:00:53;100854.59;;;9.17;66.98
35910;BME280;22004;49.120;-0.200;2022-12-08T11:03:27;100840.84;;;9.45;65.89
35910;BME280;22004;49.120;-0.200;2022-12-08T11:05:58;100835.63;;;9.51;65.62
35910;BME280;22004;49.120;-0.200;2022-12-08T11:08:26;100832.94;;;9.51;65.11
35910;BME280;22004;49.120;-0.200;2022-12-08T11:10:52;100829.78;;;9.48;65.27
35910;BME280;22004;49.120;-0.200;2022-12-08T11:13:25;100830.06;;;9.61;65.66
35910;BME280;22004;49.120;-0.200;2022-12-08T11:15:53;100833.31;;;9.40;65.91
35910;BME280;22004;49.120;-0.200;2022-12-08T11:18:25;100827.59;;;9.43;66.00
35910;BME280;22004;49.120;-0.200;2022-12-08T11:20:58;100833.78;;;9.52;65.96
35910;BME280;22004;49.120;-0.200;2022-12-08T11:23:25;100836.06;;;8.24;69.19
35910;BME280;22004;49.120;-0.200;2022-12-08T11:25:53;100830.81;;;9.30;66.60
35910;BME280;22004;49.120;-0.200;2022-12-08T11:28:22;100821.94;;;9.30;66.00
35910;BME280;22004;49.120;-0.200;2022-12-08T11:30:53;100816.94;;;9.27;66.87
35910;BME280;22004;49.120;-0.200;2022-12-08T11:33:26;100814.06;;;9.28;66.53
35910;BME280;22004;49.120;-0.200;2022-12-08T11:35:56;100810.19;;;9.39;66.20
35910;BME280;22004;49.120;-0.200;2022-12-08T11:38:25;100810.69;;;9.35;66.22
35910;BME280;22004;49.120;-0.200;2022-12-08T11:41:34;100806.06;;;9.20;66.53
35910;BME280;22004;49.120;-0.200;2022-12-08T11:44:28;100803.66;;;9.33;66.17
35910;BME280;22004;49.120;-0.200;2022-12-08T11:47:05;100798.31;;;9.33;66.32
35910;BME280;22004;49.120;-0.200;2022-12-08T11:49:36;100799.78;;;9.44;66.40
35910;BME280;22004;49.120;-0.200;2022-12-08T11:52:08;100795.13;;;9.38;66.03
35910;BME280;22004;49.120;-0.200;2022-12-08T11:55:15;100801.50;;;9.37;66.12
35910;BME280;22004;49.120;-0.200;2022-12-08T11:57:29;100807.88;;;9.28;66.42
35910;BME280;22004;49.120;-0.200;2022-12-08T11:59:56;100802.53;;;9.28;66.53
35910;BME280;22004;49.120;-0.200;2022-12-08T12:02:31;100789.63;;;9.23;66.46
35910;BME280;22004;49.120;-0.200;2022-12-08T12:05:09;100795.50;;;9.19;66.83
35910;BME280;22004;49.120;-0.200;2022-12-08T12:18:46;100776.22;;;9.31;66.57
35910;BME280;22004;49.120;-0.200;2022-12-08T12:21:26;100782.03;;;9.43;66.10
35910;BME280;22004;49.120;-0.200;2022-12-08T12:27:04;100772.06;;;9.21;66.98
35910;BME280;22004;49.120;-0.200;2022-12-08T12:29:36;100770.22;;;9.21;67.03
35910;BME280;22004;49.120;-0.200;2022-12-08T12:32:06;100766.03;;;9.27;66.96
35910;BME280;22004;49.120;-0.200;2022-12-08T12:34:34;100760.66;;;9.27;67.07
35910;BME280;22004;49.120;-0.200;2022-12-08T12:39:29;100756.84;;;9.13;67.35
35910;BME280;22004;49.120;-0.200;2022-12-08T12:42:00;100757.16;;;9.26;66.94
35910;BME280;22004;49.120;-0.200;2022-12-08T12:47:02;100749.13;;;9.26;67.04
35910;BME280;22004;49.120;-0.200;2022-12-08T12:54:43;100742.44;;;9.22;67.58
35910;BME280;22004;49.120;-0.200;2022-12-08T12:59:46;100732.22;;;9.26;67.37
35910;BME280;22004;49.120;-0.200;2022-12-08T13:02:31;100734.38;;;9.30;67.15
35910;BME280;22004;49.120;-0.200;2022-12-08T13:05:19;100736.75;;;9.25;67.51
35910;BME280;22004;49.120;-0.200;2022-12-08T13:08:01;100738.03;;;9.29;66.89
35910;BME280;22004;49.120;-0.200;2022-12-08T13:10:38;100743.75;;;9.26;66.98
35910;BME280;22004;49.120;-0.200;2022-12-08T13:15:59;100728.19;;;9.22;67.08
35910;BME280;22004;49.120;-0.200;2022-12-08T13:18:34;100727.28;;;8.82;68.29
35910;BME280;22004;49.120;-0.200;2022-12-08T13:21:10;100724.94;;;8.95;67.27
35910;BME280;22004;49.120;-0.200;2022-12-08T13:23:43;100727.25;;;9.06;67.38
35910;BME280;22004;49.120;-0.200;2022-12-08T13:29:31;100720.56;;;8.94;67.01
35910;BME280;22004;49.120;-0.200;2022-12-08T13:31:58;100718.28;;;8.42;69.17
35910;BME280;22004;49.120;-0.200;2022-12-08T13:52:50;100697.84;;;9.38;66.67
35910;BME280;22004;49.120;-0.200;2022-12-08T13:58:36;100686.41;;;9.44;66.65
35910;BME280;22004;49.120;-0.200;2022-12-08T14:01:10;100680.59;;;9.40;66.92
35910;BME280;22004;49.120;-0.200;2022-12-08T14:06:29;100673.69;;;9.46;66.55
35910;BME280;22004;49.120;-0.200;2022-12-08T14:08:58;100680.22;;;9.43;66.38
35910;BME280;22004;49.120;-0.200;2022-12-08T14:11:33;100677.31;;;9.53;66.43
35910;BME280;22004;49.120;-0.200;2022-12-08T14:14:21;100675.31;;;9.55;66.29
35910;BME280;22004;49.120;-0.200;2022-12-08T14:16:51;100669.66;;;9.50;66.06
35910;BME280;22004;49.120;-0.200;2022-12-08T14:19:24;100677.38;;;9.45;66.41
35910;BME280;22004;49.120;-0.200;2022-12-08T14:24:21;100667.97;;;9.49;66.22
35910;BME280;22004;49.120;-0.200;2022-12-08T14:26:49;100667.75;;;9.58;65.82
35910;BME280;22004;49.120;-0.200;2022-12-08T14:29:36;100667.44;;;9.53;66.33
35910;BME280;22004;49.120;-0.200;2022-12-08T14:32:49;100672.94;;;9.60;66.13
35910;BME280;22004;49.120;-0.200;2022-12-08T14:37:24;100667.59;;;9.60;65.65
35910;BME280;22004;49.120;-0.200;2022-12-08T14:39:51;100667.44;;;9.53;66.11